CheckWX is a tool to help pilots better visualize weather data.  It is not intended as a substitute for an official pre-flight weather briefing.

22:40:51 UTC

ENSS METAR
Vardø , Svartnes Airport
Vardø, Norway
Current

2 hours ago

ENSS 212050Z 27022KT 9999 BLSN BKN028 M04/M08 Q1020 RMK WIND 500FT 26030KT
Observed
Feb-21 @ 20:50 UTC
Wind
  • 270° at 22 KTS
Visibility
10,000+ meters
Flight Rules
MVFR
Conditions
Blowing Snow
Cloud Levels
  • Broken at 2,800' AGL
Temperature
-4°C / 25°F
Dewpoint
-8°C / 18°F
Humidity
74%
Altimeter
30.12" Hg
Pressure
1019.92 hPa
Previous

2 hours ago

ENSS 212020Z 27027KT 9999 BLSN SCT028 SCT036 M05/M07 Q1019 RMK WIND 500FT 27035KT
Observed
Feb-21 @ 20:20 UTC
Wind
  • 270° at 27 KTS
Visibility
10,000+ meters
Flight Rules
VFR
Conditions
Blowing Snow
Cloud Levels
  • Scattered at 2,800' AGL
  • Scattered at 3,600' AGL
Temperature
-5°C / 23°F
Dewpoint
-7°C / 19°F
Humidity
86%
Altimeter
30.09" Hg
Pressure
1018.92 hPa
Previous

3 hours ago

ENSS 211950Z 27029KT 5000 BLSN SCT023 BKN057 M04/M07 Q1019 RMK WIND 500FT 27037KT
Observed
Feb-21 @ 19:50 UTC
Wind
  • 270° at 29 KTS
Visibility
5,005 meters
Flight Rules
MVFR
Conditions
Blowing Snow
Cloud Levels
  • Scattered at 2,300' AGL
  • Broken at 5,700' AGL
Temperature
-4°C / 25°F
Dewpoint
-7°C / 19°F
Humidity
80%
Altimeter
30.09" Hg
Pressure
1018.92 hPa